Time;durP1;ratioP1;P1;durP2;ratioP2;P2;SDS_P1;SDS_P2;PMS_P1;PMS_P2;Temp;Humidity;BMP_temperature;BMP_pressure;BME280_temperature;BME280_humidity;BME280_pressure;Samples;Min_cycle;Max_cycle;Signal;HPM_P1;HPM_P2
2023/08/17 00:01:40;;;;;;;9.18;5.82;;;22.30;99.90;;;;;;5057975;28;20052;-73
2023/08/17 00:04:06;;;;;;;7.57;4.55;;;22.30;99.90;;;;;;5057219;28;20523;-75
2023/08/17 00:06:31;;;;;;;8.50;5.20;;;22.30;99.90;;;;;;5057467;28;20029;-74
2023/08/17 00:08:57;;;;;;;7.75;5.15;;;22.30;99.90;;;;;;5058652;28;20025;-74
2023/08/17 00:11:23;;;;;;;5.88;4.75;;;22.30;99.90;;;;;;5055656;28;20024;-76
2023/08/17 00:13:49;;;;;;;5.78;4.85;;;22.30;99.90;;;;;;5058158;28;20767;-76
2023/08/17 00:16:14;;;;;;;6.63;5.00;;;22.30;99.90;;;;;;5057931;28;20028;-74
2023/08/17 00:18:40;;;;;;;12.57;4.82;;;22.30;99.90;;;;;;5059148;28;20054;-76
2023/08/17 00:21:06;;;;;;;5.57;4.53;;;22.30;99.90;;;;;;5057357;28;20029;-74
2023/08/17 00:23:31;;;;;;;8.25;5.05;;;22.30;99.90;;;;;;5058244;28;20056;-74
2023/08/17 00:25:57;;;;;;;7.40;4.85;;;22.30;99.90;;;;;;5057672;28;20500;-75
2023/08/17 00:28:22;;;;;;;8.40;4.55;;;22.40;99.90;;;;;;5059087;28;20024;-75
2023/08/17 00:30:48;;;;;;;6.38;4.38;;;22.30;99.90;;;;;;5056369;28;20021;-74
2023/08/17 00:33:14;;;;;;;7.60;4.18;;;22.30;99.90;;;;;;5058467;28;20024;-75
2023/08/17 00:35:39;;;;;;;4.57;4.15;;;22.30;99.90;;;;;;5057993;28;20033;-75
2023/08/17 00:38:05;;;;;;;6.22;4.65;;;22.40;99.90;;;;;;5058564;28;20017;-74
2023/08/17 00:40:31;;;;;;;6.35;4.78;;;22.40;99.90;;;;;;5057317;28;20039;-76
2023/08/17 00:42:57;;;;;;;9.95;4.63;;;22.30;99.90;;;;;;5057912;28;20047;-76
2023/08/17 00:45:24;;;;;;;4.53;4.10;;;22.30;99.90;;;;;;5047500;28;20036;-76
2023/08/17 00:47:50;;;;;;;6.22;4.63;;;22.40;99.90;;;;;;5052851;28;20021;-74
2023/08/17 00:50:16;;;;;;;6.32;4.20;;;22.30;99.90;;;;;;5055364;28;20067;-76
2023/08/17 00:52:42;;;;;;;7.30;4.25;;;22.30;99.90;;;;;;5057412;28;20017;-73
2023/08/17 00:55:11;;;;;;;6.80;4.63;;;22.30;99.90;;;;;;5056394;28;20481;-75
2023/08/17 00:57:37;;;;;;;7.45;4.82;;;22.30;99.90;;;;;;5057828;28;20053;-75
2023/08/17 01:00:04;;;;;;;9.15;4.55;;;22.20;99.90;;;;;;5055358;28;20028;-75
2023/08/17 01:02:31;;;;;;;7.07;4.55;;;22.20;99.90;;;;;;5057576;28;20029;-74
2023/08/17 01:04:56;;;;;;;6.18;4.57;;;22.10;99.90;;;;;;5056708;28;20089;-74
2023/08/17 01:07:22;;;;;;;5.53;4.55;;;22.10;99.90;;;;;;5044325;28;20452;-75
2023/08/17 01:09:48;;;;;;;7.22;4.47;;;22.10;99.90;;;;;;5056503;28;20079;-75
2023/08/17 01:12:26;;;;;;;7.97;4.72;;;22.00;99.90;;;;;;5058080;28;20055;-76
2023/08/17 01:14:59;;;;;;;6.30;5.18;;;22.00;99.90;;;;;;5056917;28;20051;-75
2023/08/17 01:17:39;;;;;;;7.88;4.72;;;22.00;99.90;;;;;;5058225;28;20025;-75
2023/08/17 01:20:07;;;;;;;6.88;4.45;;;22.00;99.90;;;;;;5057326;28;20481;-74
2023/08/17 01:22:36;;;;;;;5.05;4.55;;;22.00;99.90;;;;;;5057550;28;20037;-74
2023/08/17 01:25:03;;;;;;;6.97;4.93;;;22.00;99.90;;;;;;5057265;28;20064;-74
2023/08/17 01:27:40;;;;;;;8.05;4.82;;;22.00;99.90;;;;;;5056594;28;20013;-75
2023/08/17 01:30:08;;;;;;;6.25;4.57;;;22.00;99.90;;;;;;5057876;28;20032;-75
2023/08/17 01:32:50;;;;;;;7.28;5.78;;;22.00;99.90;;;;;;5056160;28;20017;-74
2023/08/17 01:35:36;;;;;;;6.28;4.25;;;21.90;99.90;;;;;;5057352;28;20035;-74
2023/08/17 01:38:07;;;;;;;7.38;4.78;;;21.90;99.90;;;;;;5057727;28;20024;-74
2023/08/17 01:40:34;;;;;;;6.15;4.50;;;21.90;99.90;;;;;;5056127;28;20039;-75
2023/08/17 01:43:01;;;;;;;5.75;5.03;;;21.90;99.90;;;;;;5056280;28;20397;-74
2023/08/17 01:45:27;;;;;;;8.23;4.43;;;21.90;99.90;;;;;;5055774;28;20032;-73
2023/08/17 01:47:52;;;;;;;7.22;5.22;;;21.90;99.90;;;;;;5055980;28;20054;-74
2023/08/17 01:50:18;;;;;;;8.40;5.45;;;21.80;99.90;;;;;;5055827;28;20082;-74
2023/08/17 01:52:44;;;;;;;7.32;5.10;;;21.80;99.90;;;;;;5056099;28;20434;-74
2023/08/17 01:55:09;;;;;;;6.95;5.43;;;21.70;99.90;;;;;;5054543;28;20118;-74
2023/08/17 01:57:36;;;;;;;6.30;4.85;;;21.70;99.90;;;;;;5055717;28;20052;-74
2023/08/17 02:00:05;;;;;;;6.30;5.10;;;21.70;99.90;;;;;;5046882;28;20601;-74
2023/08/17 02:02:31;;;;;;;7.13;4.85;;;21.70;99.90;;;;;;5051787;28;20029;-74
2023/08/17 02:04:57;;;;;;;8.45;5.57;;;21.60;99.90;;;;;;5053947;28;20033;-74
2023/08/17 02:07:22;;;;;;;7.82;5.00;;;21.60;99.90;;;;;;5055206;28;20029;-74
2023/08/17 02:09:48;;;;;;;6.63;5.82;;;21.50;99.90;;;;;;5054985;28;20025;-74
2023/08/17 02:12:14;;;;;;;6.47;5.18;;;21.40;99.90;;;;;;5055777;28;20574;-74
2023/08/17 02:14:39;;;;;;;7.07;5.53;;;21.30;99.90;;;;;;5054230;28;20025;-72
2023/08/17 02:17:05;;;;;;;7.22;5.80;;;21.30;99.90;;;;;;5057742;28;20032;-72
2023/08/17 02:19:32;;;;;;;5.72;5.00;;;21.20;99.90;;;;;;5063099;28;20033;-72
2023/08/17 02:21:58;;;;;;;13.07;5.93;;;21.10;99.90;;;;;;5055107;28;20020;-72
2023/08/17 02:24:24;;;;;;;7.25;5.55;;;21.10;99.90;;;;;;5056343;28;20063;-72
2023/08/17 02:26:50;;;;;;;13.38;7.45;;;21.10;99.90;;;;;;5063117;28;20044;-72
2023/08/17 02:29:16;;;;;;;7.28;6.28;;;21.10;99.90;;;;;;5062610;28;20139;-71
2023/08/17 02:31:41;;;;;;;7.25;5.75;;;21.10;99.90;;;;;;5066234;28;20070;-74
2023/08/17 02:34:07;;;;;;;6.28;5.63;;;21.10;99.90;;;;;;5060141;28;20440;-74
2023/08/17 02:36:33;;;;;;;9.15;6.40;;;21.00;99.90;;;;;;5060393;28;20021;-73
2023/08/17 02:38:59;;;;;;;8.13;6.22;;;21.00;99.90;;;;;;5057385;28;20036;-72
2023/08/17 02:41:24;;;;;;;8.75;6.38;;;21.00;99.90;;;;;;5060416;28;20460;-71
2023/08/17 02:43:50;;;;;;;7.70;6.50;;;21.00;99.90;;;;;;5057767;28;20040;-72
2023/08/17 02:46:16;;;;;;;7.68;6.50;;;21.00;99.90;;;;;;5063968;28;20032;-71
2023/08/17 02:48:41;;;;;;;9.02;6.80;;;21.00;99.90;;;;;;5061228;28;20035;-72
2023/08/17 02:51:07;;;;;;;11.80;6.57;;;21.10;99.90;;;;;;5063293;28;20016;-74
2023/08/17 02:53:33;;;;;;;9.52;6.57;;;21.10;99.90;;;;;;5071390;28;20028;-72
2023/08/17 02:55:58;;;;;;;11.50;6.97;;;21.10;99.90;;;;;;5063380;28;20028;-73
2023/08/17 02:58:24;;;;;;;7.22;6.50;;;21.10;99.90;;;;;;5070191;28;20025;-73
2023/08/17 03:00:53;;;;;;;8.70;6.63;;;21.10;99.90;;;;;;5072259;28;20025;-73
2023/08/17 03:03:19;;;;;;;7.80;6.63;;;21.20;99.90;;;;;;5071438;28;20021;-72
2023/08/17 03:05:44;;;;;;;10.13;7.05;;;21.10;99.90;;;;;;5071642;28;20044;-72
2023/08/17 03:08:10;;;;;;;10.20;6.78;;;21.20;99.90;;;;;;5071343;28;20447;-72
2023/08/17 03:10:37;;;;;;;11.65;7.38;;;21.20;99.90;;;;;;5070694;28;20122;-72
2023/08/17 03:13:03;;;;;;;10.38;7.07;;;21.20;99.90;;;;;;5065820;28;20017;-73
2023/08/17 03:15:29;;;;;;;9.07;6.65;;;21.20;99.90;;;;;;5066763;28;20029;-72
2023/08/17 03:17:54;;;;;;;8.05;7.25;;;21.30;99.90;;;;;;5072512;28;20116;-72
2023/08/17 03:20:20;;;;;;;12.15;7.97;;;21.30;99.90;;;;;;5061675;28;20060;-73
2023/08/17 03:22:46;;;;;;;8.95;7.75;;;21.30;99.90;;;;;;5070323;28;20024;-73
2023/08/17 03:25:11;;;;;;;7.95;7.25;;;21.40;99.90;;;;;;5072842;28;20518;-72
2023/08/17 03:27:37;;;;;;;8.40;7.53;;;21.40;99.90;;;;;;5070227;28;20017;-73
2023/08/17 03:30:04;;;;;;;8.50;7.43;;;21.30;99.90;;;;;;5071863;28;20031;-73
2023/08/17 03:32:30;;;;;;;11.13;7.53;;;21.30;99.90;;;;;;5070512;28;20031;-73
2023/08/17 03:34:56;;;;;;;10.73;6.95;;;21.20;99.90;;;;;;5072638;28;20052;-73
2023/08/17 03:37:21;;;;;;;9.73;7.10;;;21.20;99.90;;;;;;5070413;28;20025;-73
2023/08/17 03:39:47;;;;;;;10.82;6.68;;;21.20;99.90;;;;;;5072866;28;20031;-73
2023/08/17 03:42:12;;;;;;;12.00;8.02;;;21.20;99.90;;;;;;5069969;28;20029;-73
2023/08/17 03:44:38;;;;;;;7.93;7.05;;;21.10;99.90;;;;;;5072241;28;20369;-73
2023/08/17 03:47:04;;;;;;;7.97;6.60;;;21.10;99.90;;;;;;5070385;28;20598;-73
2023/08/17 03:49:29;;;;;;;11.57;7.97;;;21.10;99.90;;;;;;5072615;28;20668;-73
2023/08/17 03:51:55;;;;;;;8.13;6.88;;;21.10;99.90;;;;;;5070132;28;20435;-73
2023/08/17 03:54:21;;;;;;;8.10;7.30;;;21.10;99.90;;;;;;5072030;28;20561;-72
2023/08/17 03:56:46;;;;;;;8.98;7.80;;;21.00;99.90;;;;;;5068648;28;20081;-73
2023/08/17 03:59:12;;;;;;;9.55;7.68;;;21.10;99.90;;;;;;5061705;28;20018;-73
2023/08/17 04:01:38;;;;;;;7.45;6.72;;;21.00;99.90;;;;;;5065670;28;20118;-73
2023/08/17 04:04:03;;;;;;;9.60;6.88;;;21.00;99.90;;;;;;5070961;28;20025;-72
2023/08/17 04:06:30;;;;;;;9.10;7.85;;;21.10;99.90;;;;;;5068448;28;20028;-73
2023/08/17 04:08:56;;;;;;;9.80;7.75;;;21.10;99.90;;;;;;5071524;28;20035;-72
2023/08/17 04:11:21;;;;;;;8.75;7.00;;;21.10;99.90;;;;;;5068500;28;20012;-72
2023/08/17 04:13:47;;;;;;;8.65;7.75;;;21.10;99.90;;;;;;5070678;28;20047;-72
2023/08/17 04:16:13;;;;;;;9.23;6.78;;;21.10;99.90;;;;;;5066972;28;20123;-72
2023/08/17 04:18:38;;;;;;;10.90;7.50;;;21.20;99.90;;;;;;5071108;28;20070;-73
2023/08/17 04:21:04;;;;;;;8.15;7.30;;;21.20;99.90;;;;;;5058785;28;20020;-72
2023/08/17 04:23:29;;;;;;;9.18;7.45;;;21.20;99.90;;;;;;5069303;28;20044;-73
2023/08/17 04:25:55;;;;;;;8.38;6.95;;;21.20;99.90;;;;;;5067816;28;20520;-73
2023/08/17 04:28:21;;;;;;;10.75;7.45;;;21.20;99.90;;;;;;5070768;28;20546;-72
2023/08/17 04:30:47;;;;;;;9.18;7.43;;;21.20;99.90;;;;;;5066532;28;20079;-73
2023/08/17 04:33:12;;;;;;;8.15;6.65;;;21.20;99.90;;;;;;5071514;28;20362;-73
2023/08/17 04:35:39;;;;;;;8.23;6.85;;;21.30;99.90;;;;;;5068509;28;20028;-73
2023/08/17 04:38:04;;;;;;;11.57;8.07;;;21.30;99.90;;;;;;5071707;28;20032;-73
2023/08/17 04:40:31;;;;;;;9.75;7.93;;;21.30;99.90;;;;;;5067702;28;20024;-73
2023/08/17 04:42:56;;;;;;;9.50;7.22;;;21.40;99.90;;;;;;5071202;28;20400;-73
2023/08/17 04:45:23;;;;;;;7.82;7.03;;;21.40;99.90;;;;;;5068173;28;20034;-73
2023/08/17 04:47:49;;;;;;;9.90;7.53;;;21.40;99.90;;;;;;5071940;28;20025;-73
2023/08/17 04:50:16;;;;;;;10.98;7.80;;;21.40;99.90;;;;;;5067588;28;21083;-73
2023/08/17 04:52:45;;;;;;;8.73;7.80;;;21.40;99.90;;;;;;5070750;28;20466;-73
2023/08/17 04:55:12;;;;;;;8.35;6.95;;;21.40;99.90;;;;;;5067847;28;20031;-73
2023/08/17 04:57:38;;;;;;;9.20;8.05;;;21.50;99.90;;;;;;5070136;28;20115;-72
2023/08/17 05:00:08;;;;;;;9.55;7.38;;;21.50;99.90;;;;;;5068416;28;20112;-73
2023/08/17 05:02:34;;;;;;;11.15;7.45;;;21.50;99.90;;;;;;5069894;28;20021;-73
2023/08/17 05:04:59;;;;;;;8.68;7.07;;;21.50;99.90;;;;;;5069589;28;20043;-73
2023/08/17 05:07:25;;;;;;;8.68;7.65;;;21.60;99.90;;;;;;5069764;28;20029;-73
2023/08/17 05:09:51;;;;;;;9.50;7.38;;;21.60;99.90;;;;;;5068538;28;20088;-73
2023/08/17 05:12:16;;;;;;;9.88;6.97;;;21.60;99.90;;;;;;5069733;28;20028;-73
2023/08/17 05:14:42;;;;;;;8.50;6.97;;;21.60;99.90;;;;;;5069034;28;20027;-73
2023/08/17 05:17:08;;;;;;;10.95;8.23;;;21.50;99.90;;;;;;5069700;28;20088;-73
2023/08/17 05:19:33;;;;;;;9.07;7.00;;;21.50;99.90;;;;;;5068811;28;20012;-73
2023/08/17 05:21:59;;;;;;;7.78;7.05;;;21.60;99.90;;;;;;5062135;28;20024;-73
2023/08/17 05:24:24;;;;;;;9.85;7.85;;;21.60;99.90;;;;;;5067353;28;20101;-73
2023/08/17 05:26:50;;;;;;;7.88;6.68;;;21.60;99.90;;;;;;5060822;28;20114;-73
2023/08/17 05:29:16;;;;;;;10.18;6.95;;;21.70;99.90;;;;;;5068748;28;20032;-74
2023/08/17 05:31:41;;;;;;;8.32;7.45;;;21.70;99.90;;;;;;5070643;28;20560;-73
2023/08/17 05:34:07;;;;;;;8.77;6.65;;;21.70;99.90;;;;;;5057073;28;20053;-73
2023/08/17 05:36:33;;;;;;;8.35;6.28;;;21.80;99.90;;;;;;5058710;28;20112;-74
2023/08/17 05:38:58;;;;;;;10.48;7.20;;;21.70;99.90;;;;;;5056853;28;20104;-73
2023/08/17 05:41:24;;;;;;;8.68;7.35;;;21.80;99.90;;;;;;5068651;28;20055;-73
2023/08/17 05:43:50;;;;;;;12.32;7.38;;;21.80;99.90;;;;;;5072361;28;20036;-73
2023/08/17 05:46:16;;;;;;;7.95;6.57;;;21.80;99.90;;;;;;5070593;28;20028;-74
2023/08/17 05:48:42;;;;;;;9.98;7.55;;;21.80;99.90;;;;;;5072034;28;20396;-73
2023/08/17 05:51:07;;;;;;;8.35;6.95;;;21.90;99.90;;;;;;5071004;28;20871;-74
2023/08/17 05:53:33;;;;;;;15.10;7.28;;;21.80;99.90;;;;;;5072432;28;20133;-73
2023/08/17 05:55:59;;;;;;;6.32;5.68;;;21.90;99.90;;;;;;5072669;28;20083;-73
2023/08/17 05:58:24;;;;;;;9.45;7.32;;;21.90;99.90;;;;;;5065368;28;20037;-73
2023/08/17 06:00:50;;;;;;;12.20;6.47;;;21.90;99.90;;;;;;5063350;28;20024;-73
2023/08/17 06:03:15;;;;;;;8.55;7.03;;;21.90;99.90;;;;;;5060320;28;20170;-73
2023/08/17 06:05:41;;;;;;;8.00;7.20;;;22.00;99.90;;;;;;5064772;28;20095;-73
2023/08/17 06:08:07;;;;;;;10.55;6.85;;;22.00;99.90;;;;;;5059896;28;20031;-73
2023/08/17 06:10:32;;;;;;;10.40;6.78;;;22.00;99.90;;;;;;5064760;28;20017;-73
2023/08/17 06:12:58;;;;;;;7.50;6.25;;;22.00;99.90;;;;;;5060108;28;20600;-73
2023/08/17 06:15:24;;;;;;;7.60;6.53;;;21.90;99.90;;;;;;5064582;28;20031;-74
2023/08/17 06:17:51;;;;;;;9.43;6.28;;;22.00;99.90;;;;;;5060160;28;20029;-74
2023/08/17 06:20:17;;;;;;;10.07;7.30;;;22.00;99.90;;;;;;5062106;28;20021;-73
2023/08/17 06:22:43;;;;;;;6.85;6.15;;;22.00;99.90;;;;;;5061896;28;20409;-75
2023/08/17 06:25:09;;;;;;;8.10;5.72;;;22.10;99.90;;;;;;5075404;28;20025;-73
2023/08/17 06:27:35;;;;;;;11.05;7.10;;;22.00;99.90;;;;;;5075497;28;20029;-71
2023/08/17 06:30:03;;;;;;;7.90;5.88;;;22.10;99.90;;;;;;5074781;28;20082;-71
2023/08/17 06:32:29;;;;;;;10.45;6.38;;;22.20;99.90;;;;;;5076436;28;20048;-71
2023/08/17 06:34:55;;;;;;;7.05;6.20;;;22.30;99.90;;;;;;5075453;28;20040;-71
2023/08/17 06:37:20;;;;;;;8.05;5.60;;;22.30;99.90;;;;;;5073381;28;20036;-71
2023/08/17 06:39:46;;;;;;;9.45;6.75;;;22.30;99.90;;;;;;5076689;28;20488;-71
2023/08/17 06:42:12;;;;;;;8.00;5.63;;;22.30;99.90;;;;;;5076472;28;20032;-71
2023/08/17 06:44:37;;;;;;;7.72;6.05;;;22.30;99.90;;;;;;5077608;28;20439;-70
2023/08/17 06:47:03;;;;;;;8.18;6.15;;;22.40;99.90;;;;;;5078369;28;20541;-71
2023/08/17 06:49:30;;;;;;;9.57;6.18;;;22.40;99.90;;;;;;5074036;28;20028;-71
2023/08/17 06:51:55;;;;;;;7.43;6.55;;;22.40;99.90;;;;;;5071806;28;20063;-71
2023/08/17 06:54:21;;;;;;;9.35;6.57;;;22.50;99.90;;;;;;5072172;28;20016;-71
2023/08/17 06:56:47;;;;;;;8.57;5.85;;;22.50;99.90;;;;;;5071646;28;20029;-71
2023/08/17 06:59:12;;;;;;;9.13;6.22;;;22.60;99.90;;;;;;5073310;28;20024;-71
2023/08/17 07:01:38;;;;;;;8.45;5.88;;;22.70;99.90;;;;;;5069579;28;20472;-71
2023/08/17 07:04:04;;;;;;;7.25;5.97;;;22.70;99.90;;;;;;5068556;28;20024;-71
2023/08/17 07:06:29;;;;;;;10.73;5.88;;;22.70;99.90;;;;;;5062785;28;20025;-71
2023/08/17 07:08:56;;;;;;;8.85;5.55;;;22.80;99.90;;;;;;5058848;28;20031;-71
2023/08/17 07:11:22;;;;;;;6.53;5.85;;;22.80;99.90;;;;;;5061773;28;20025;-71
2023/08/17 07:13:47;;;;;;;9.68;6.22;;;22.70;99.90;;;;;;5054045;28;20031;-71
2023/08/17 07:16:13;;;;;;;7.03;5.30;;;22.80;99.90;;;;;;5063975;28;20033;-71
2023/08/17 07:18:40;;;;;;;7.88;5.85;;;22.90;99.90;;;;;;5070040;28;20393;-72
2023/08/17 07:21:05;;;;;;;8.25;6.72;;;23.00;99.90;;;;;;5059746;28;20393;-71
2023/08/17 07:23:31;;;;;;;7.38;5.65;;;23.10;99.90;;;;;;5060556;28;20055;-71
2023/08/17 07:25:57;;;;;;;6.60;5.72;;;23.20;99.90;;;;;;5059314;28;20029;-71
2023/08/17 07:28:23;;;;;;;8.43;5.70;;;23.20;99.90;;;;;;5061670;28;20023;-71
2023/08/17 07:30:48;;;;;;;9.63;6.50;;;23.30;99.90;;;;;;5058697;28;20045;-71
2023/08/17 07:33:14;;;;;;;6.53;5.82;;;23.50;99.90;;;;;;5059265;28;20036;-72
2023/08/17 07:35:40;;;;;;;8.90;6.18;;;23.70;99.90;;;;;;5061770;28;20033;-71
2023/08/17 07:38:05;;;;;;;8.30;5.82;;;23.90;99.90;;;;;;5074318;28;20100;-71
2023/08/17 07:40:31;;;;;;;9.30;6.10;;;24.00;99.90;;;;;;5070242;28;20081;-71
2023/08/17 07:42:57;;;;;;;7.47;6.05;;;24.20;99.90;;;;;;5068331;28;20025;-71
2023/08/17 07:45:22;;;;;;;7.95;5.53;;;24.20;99.90;;;;;;5066794;28;20036;-71
2023/08/17 07:47:48;;;;;;;8.98;4.93;;;24.20;99.90;;;;;;5067611;28;20481;-71
2023/08/17 07:50:14;;;;;;;7.82;5.35;;;24.30;99.90;;;;;;5071283;28;20022;-71
2023/08/17 07:52:39;;;;;;;10.02;5.90;;;24.40;99.90;;;;;;5072910;28;20028;-71
2023/08/17 07:55:05;;;;;;;6.28;5.30;;;24.40;99.90;;;;;;5066582;28;20043;-71
2023/08/17 07:57:31;;;;;;;8.13;4.72;;;24.50;99.90;;;;;;5061190;28;20017;-72
2023/08/17 07:59:56;;;;;;;6.88;5.50;;;24.40;99.90;;;;;;5060196;28;20029;-71
2023/08/17 08:02:22;;;;;;;7.30;4.88;;;24.30;99.90;;;;;;5062097;28;20029;-71
2023/08/17 08:04:48;;;;;;;6.03;5.43;;;24.40;99.90;;;;;;5059922;28;20073;-71
2023/08/17 08:07:13;;;;;;;7.18;5.20;;;24.60;99.90;;;;;;5069612;28;20020;-71
2023/08/17 08:09:39;;;;;;;6.88;5.22;;;24.70;99.90;;;;;;5067960;28;20055;-72
2023/08/17 08:12:07;;;;;;;5.72;5.13;;;24.80;99.90;;;;;;5074240;28;20020;-71
2023/08/17 08:14:33;;;;;;;6.22;4.93;;;24.80;99.90;;;;;;5048892;28;20062;-72
2023/08/17 08:16:59;;;;;;;7.72;4.40;;;24.80;99.90;;;;;;5074771;28;20017;-72
2023/08/17 08:19:25;;;;;;;7.95;5.28;;;24.80;99.90;;;;;;5074847;28;20115;-72
2023/08/17 08:21:50;;;;;;;7.20;4.78;;;25.00;99.90;;;;;;5057772;28;20503;-71
2023/08/17 08:24:16;;;;;;;5.32;4.30;;;25.00;99.90;;;;;;5062417;28;20049;-72
2023/08/17 08:26:42;;;;;;;7.55;4.70;;;25.10;99.90;;;;;;5067664;28;20024;-72
2023/08/17 08:29:07;;;;;;;7.57;4.53;;;25.10;99.90;;;;;;5060597;28;20033;-71
2023/08/17 08:31:33;;;;;;;5.65;4.30;;;25.20;99.90;;;;;;5066915;28;20488;-71
2023/08/17 08:33:59;;;;;;;6.57;4.53;;;25.30;99.90;;;;;;5061295;28;20021;-72
2023/08/17 08:36:25;;;;;;;8.00;4.32;;;25.30;99.90;;;;;;5066876;28;20033;-71
2023/08/17 08:38:51;;;;;;;6.53;4.10;;;25.50;99.90;;;;;;5060093;28;20040;-71
2023/08/17 08:41:17;;;;;;;6.22;4.32;;;25.60;99.90;;;;;;5065766;28;20028;-71
2023/08/17 08:43:43;;;;;;;5.80;4.05;;;25.70;99.90;;;;;;5060547;28;20090;-78
2023/08/17 08:46:09;;;;;;;4.80;4.30;;;25.70;99.90;;;;;;5073220;28;20087;-78
2023/08/17 08:48:38;;;;;;;9.95;6.60;;;25.80;99.90;;;;;;5061173;28;20025;-79
2023/08/17 08:51:07;;;;;;;9.25;5.25;;;25.90;99.90;;;;;;5073482;28;20112;-77
2023/08/17 08:53:44;;;;;;;5.93;5.22;;;25.90;99.90;;;;;;5049443;28;20078;-79
2023/08/17 08:56:15;;;;;;;8.05;4.82;;;26.20;99.90;;;;;;5070957;28;20112;-77
2023/08/17 08:58:42;;;;;;;15.23;5.95;;;26.30;99.90;;;;;;5067320;28;20467;-77
2023/08/17 09:01:10;;;;;;;30.08;18.35;;;26.40;99.90;;;;;;5072703;28;20481;-80
2023/08/17 09:03:36;;;;;;;23.75;15.25;;;26.40;99.90;;;;;;5066037;28;20411;-77
2023/08/17 09:06:04;;;;;;;31.23;19.42;;;26.50;99.90;;;;;;5061345;28;20020;-78
2023/08/17 09:08:30;;;;;;;10.27;5.18;;;26.60;99.90;;;;;;5059541;28;20499;-79
2023/08/17 09:10:57;;;;;;;13.15;8.90;;;26.60;99.90;;;;;;5063789;28;20013;-79
2023/08/17 09:13:23;;;;;;;8.23;6.10;;;26.70;99.90;;;;;;5074780;28;20082;-78
2023/08/17 09:15:48;;;;;;;7.78;4.47;;;26.70;99.90;;;;;;5074007;28;20024;-78
2023/08/17 09:18:16;;;;;;;6.03;3.97;;;26.80;99.90;;;;;;5075375;28;20068;-78
2023/08/17 09:20:45;;;;;;;12.77;8.48;;;26.90;99.90;;;;;;5071232;28;20028;-80
2023/08/17 09:23:19;;;;;;;9.23;5.95;;;26.90;99.90;;;;;;5075000;28;20078;-77
2023/08/17 09:25:46;;;;;;;9.18;6.00;;;27.00;99.90;;;;;;5073893;28;20020;-78
2023/08/17 09:28:14;;;;;;;34.40;19.23;;;27.20;99.90;;;;;;5074347;28;20032;-79
2023/08/17 09:31:09;;;;;;;8.48;5.03;;;27.30;99.90;;;;;;5059695;28;20121;-78
2023/08/17 09:33:35;;;;;;;20.65;13.07;;;27.30;99.90;;;;;;5050169;28;20064;-78
2023/08/17 09:36:01;;;;;;;5.55;3.45;;;27.40;99.90;;;;;;5060818;28;20402;-77
2023/08/17 09:38:28;;;;;;;13.00;8.00;;;27.50;99.90;;;;;;5058578;28;20036;-78
2023/08/17 09:40:54;;;;;;;5.70;3.88;;;27.50;99.90;;;;;;5069069;28;20097;-76
2023/08/17 09:43:22;;;;;;;8.63;5.10;;;27.50;99.90;;;;;;5064842;28;20509;-77
2023/08/17 09:45:51;;;;;;;4.60;3.35;;;27.60;99.90;;;;;;5074699;28;20024;-77
2023/08/17 09:48:18;;;;;;;10.35;4.90;;;27.70;99.90;;;;;;5061799;28;20029;-79
2023/08/17 09:50:48;;;;;;;5.40;3.95;;;27.90;99.90;;;;;;5059839;28;20021;-76
2023/08/17 09:53:18;;;;;;;5.75;3.80;;;27.80;99.90;;;;;;5065433;28;20477;-79
2023/08/17 09:55:45;;;;;;;6.05;3.80;;;27.80;99.90;;;;;;5080550;28;20028;-78
2023/08/17 09:58:15;;;;;;;6.15;3.47;;;27.80;99.90;;;;;;5074181;28;20029;-79
2023/08/17 10:00:48;;;;;;;4.68;3.40;;;27.80;99.90;;;;;;5067649;28;20048;-78
2023/08/17 10:03:15;;;;;;;8.23;5.63;;;27.90;99.90;;;;;;5066147;28;20032;-79
2023/08/17 10:05:44;;;;;;;7.30;3.70;;;27.90;99.90;;;;;;5053871;28;20036;-78
2023/08/17 10:08:16;;;;;;;4.28;2.78;;;28.00;99.90;;;;;;5066521;28;20025;-77
2023/08/17 10:10:46;;;;;;;10.63;4.45;;;28.10;99.90;;;;;;5071523;28;20078;-78
2023/08/17 10:13:26;;;;;;;3.25;2.55;;;28.10;99.90;;;;;;5079987;28;20017;-78
2023/08/17 10:15:55;;;;;;;5.13;3.03;;;28.10;99.90;;;;;;5078346;28;20024;-80
2023/08/17 10:18:24;;;;;;;6.43;2.73;;;28.20;99.90;;;;;;5079257;28;20025;-77
2023/08/17 10:21:05;;;;;;;6.38;3.65;;;28.30;99.90;;;;;;5072601;28;20489;-78
2023/08/17 10:23:31;;;;;;;6.72;3.17;;;28.30;99.90;;;;;;5075043;28;20057;-77
2023/08/17 10:25:57;;;;;;;7.05;3.05;;;28.30;99.90;;;;;;5078030;28;20060;-77
2023/08/17 10:28:24;;;;;;;4.95;3.13;;;28.40;99.90;;;;;;5078985;28;20028;-77
2023/08/17 10:30:51;;;;;;;6.18;3.15;;;28.50;99.90;;;;;;5055486;28;20138;-79
2023/08/17 10:33:17;;;;;;;6.13;3.63;;;28.50;99.90;;;;;;5079346;28;20050;-77
2023/08/17 10:35:44;;;;;;;5.82;3.30;;;28.60;99.90;;;;;;5081153;28;20027;-78
2023/08/17 10:38:10;;;;;;;5.53;3.13;;;28.80;99.90;;;;;;5080902;28;20021;-78
2023/08/17 10:40:41;;;;;;;5.35;3.78;;;28.70;99.90;;;;;;5081210;28;20032;-78
2023/08/17 10:43:07;;;;;;;6.13;3.45;;;28.70;99.90;;;;;;5078616;28;20122;-77
2023/08/17 10:45:36;;;;;;;5.28;3.10;;;28.80;99.90;;;;;;5061750;28;20513;-78
2023/08/17 10:48:05;;;;;;;4.43;2.95;;;28.90;99.90;;;;;;5062379;28;20032;-79
2023/08/17 10:50:32;;;;;;;4.07;2.53;;;28.90;99.90;;;;;;5060802;28;20554;-78
2023/08/17 10:53:03;;;;;;;6.10;3.40;;;28.90;99.90;;;;;;5059909;28;20569;-77
2023/08/17 10:55:37;;;;;;;4.47;3.10;;;28.90;99.90;;;;;;5069093;28;20035;-76
2023/08/17 10:58:03;;;;;;;7.22;3.40;;;29.00;99.90;;;;;;5069165;28;20021;-77
2023/08/17 11:00:38;;;;;;;4.88;2.72;;;29.20;99.90;;;;;;5071407;28;20039;-76
2023/08/17 11:03:09;;;;;;;5.47;3.47;;;29.30;99.90;;;;;;5067661;28;20397;-78
2023/08/17 11:05:48;;;;;;;6.95;2.95;;;29.30;99.90;;;;;;5071970;28;20485;-76
2023/08/17 11:08:34;;;;;;;5.32;3.75;;;29.20;99.90;;;;;;5064388;28;20036;-76
2023/08/17 11:11:09;;;;;;;9.10;3.85;;;29.50;99.90;;;;;;5066129;28;20025;-77
2023/08/17 11:13:36;;;;;;;6.65;3.10;;;29.40;99.90;;;;;;5068895;28;20012;-77
2023/08/17 11:16:03;;;;;;;5.95;3.00;;;29.50;99.90;;;;;;5064250;28;20396;-77
2023/08/17 11:18:30;;;;;;;4.75;3.65;;;29.50;99.90;;;;;;5070308;28;20025;-77
2023/08/17 11:20:56;;;;;;;4.68;2.92;;;29.60;99.90;;;;;;5054169;28;20133;-77
2023/08/17 11:23:23;;;;;;;7.60;3.90;;;29.70;99.90;;;;;;5069160;28;20049;-78
2023/08/17 11:25:51;;;;;;;6.07;4.20;;;29.80;99.90;;;;;;5063947;28;20028;-77
2023/08/17 11:28:16;;;;;;;7.90;3.50;;;29.80;99.90;;;;;;5069297;28;20019;-78
2023/08/17 11:30:43;;;;;;;5.28;3.33;;;30.10;99.90;;;;;;5063405;28;20021;-79
2023/08/17 11:33:10;;;;;;;5.45;3.33;;;29.80;99.90;;;;;;5068606;28;20016;-78
2023/08/17 11:35:37;;;;;;;6.10;3.30;;;29.70;99.90;;;;;;5063575;28;20500;-77
2023/08/17 11:38:03;;;;;;;4.30;3.08;;;29.80;99.90;;;;;;5055946;28;20031;-78
2023/08/17 11:40:30;;;;;;;5.68;2.60;;;29.90;99.90;;;;;;5063271;28;20036;-77
2023/08/17 11:42:56;;;;;;;7.68;3.83;;;29.90;99.90;;;;;;5057548;28;20032;-77
2023/08/17 11:45:21;;;;;;;4.22;2.70;;;29.90;99.90;;;;;;5070862;28;20032;-77
2023/08/17 11:47:47;;;;;;;4.70;3.10;;;30.20;99.90;;;;;;5073978;28;20520;-78
2023/08/17 11:50:14;;;;;;;5.25;2.88;;;30.30;99.90;;;;;;5071129;28;20476;-76
2023/08/17 11:52:40;;;;;;;5.20;3.00;;;30.30;99.90;;;;;;5074800;28;20127;-77
2023/08/17 11:55:09;;;;;;;6.05;3.05;;;30.30;99.90;;;;;;5063035;28;20021;-76
2023/08/17 11:57:36;;;;;;;5.03;2.80;;;30.40;99.90;;;;;;5071513;28;20048;-78
2023/08/17 12:00:03;;;;;;;3.55;2.42;;;30.50;99.90;;;;;;5067276;28;20484;-77
2023/08/17 12:02:30;;;;;;;4.75;2.70;;;30.60;99.90;;;;;;5071614;28;20032;-78
2023/08/17 12:04:56;;;;;;;6.15;2.42;;;30.60;99.90;;;;;;5072151;28;20150;-77
2023/08/17 12:07:24;;;;;;;5.88;2.40;;;30.80;99.90;;;;;;5072739;28;20028;-80
2023/08/17 12:09:51;;;;;;;3.22;2.10;;;30.90;99.90;;;;;;5067401;28;20121;-79
2023/08/17 12:12:22;;;;;;;4.28;2.10;;;31.00;99.90;;;;;;5067875;28;20028;-77
2023/08/17 12:14:49;;;;;;;4.43;2.42;;;31.10;99.90;;;;;;5065054;28;20397;-78
2023/08/17 12:17:18;;;;;;;3.42;2.35;;;31.00;99.90;;;;;;5065994;28;20107;-78
2023/08/17 12:19:44;;;;;;;6.17;2.83;;;31.00;99.90;;;;;;5064730;28;20021;-76
2023/08/17 12:22:12;;;;;;;4.50;2.40;;;31.10;99.90;;;;;;5055411;28;20020;-74
2023/08/17 12:24:38;;;;;;;7.57;3.13;;;31.10;99.90;;;;;;5065163;28;20044;-76
2023/08/17 12:27:05;;;;;;;5.60;2.47;;;31.20;99.90;;;;;;5073361;28;20112;-77
2023/08/17 12:29:31;;;;;;;4.68;2.38;;;31.10;99.90;;;;;;5038913;28;20084;-77
2023/08/17 12:31:58;;;;;;;5.80;2.33;;;31.20;99.50;;;;;;5053817;28;20465;-75
2023/08/17 12:34:24;;;;;;;4.63;2.83;;;31.20;99.10;;;;;;5057155;28;20032;-76
2023/08/17 12:36:50;;;;;;;5.53;2.60;;;31.30;99.90;;;;;;5056185;28;20040;-75
2023/08/17 12:39:16;;;;;;;3.97;2.20;;;31.40;99.90;;;;;;5049041;28;20036;-75
2023/08/17 12:41:42;;;;;;;6.28;2.80;;;31.50;99.70;;;;;;5050652;28;20066;-77
2023/08/17 12:44:11;;;;;;;3.67;2.28;;;31.50;99.90;;;;;;5052778;28;20103;-75